Time;durP1;ratioP1;P1;durP2;ratioP2;P2;SDS_P1;SDS_P2;PMS_P1;PMS_P2;Temp;Humidity;BMP_temperature;BMP_pressure;BME280_temperature;BME280_humidity;BME280_pressure;Samples;Min_cycle;Max_cycle;Signal;HPM_P1;HPM_P2
2022/06/09 00:00:53;;;;;;;;;;;;;;;-144.99;100.00;52305.41;5032096;28;19977;-70
2022/06/09 00:03:21;;;;;;;;;;;;;;;-144.99;100.00;52301.34;5030064;28;19964;-70
2022/06/09 00:05:47;;;;;;;;;;;;;;;-144.99;100.00;52272.81;5030241;28;20353;-70
2022/06/09 00:08:16;;;;;;;;;;;;;;;-144.99;100.00;52321.72;5029990;28;20374;-70
2022/06/09 00:10:43;;;;;;;;;;;;;;;-144.99;100.00;52309.50;5029796;28;19925;-69
2022/06/09 00:13:10;;;;;;;;;;;;;;;-144.99;100.00;52321.72;5029594;28;20361;-70
2022/06/09 00:15:37;;;;;;;;;;;;;;;-144.99;100.00;52329.88;5029467;28;19941;-70
2022/06/09 00:18:05;;;;;;;;;;;;;;;-144.99;100.00;52289.13;5016799;28;20280;-71
2022/06/09 00:20:32;;;;;;;;;;;;;;;-144.99;100.00;52305.41;5030105;28;20010;-71
2022/06/09 00:22:58;;;;;;;;;;;;;;;-144.99;100.00;52289.13;5030345;28;19990;-70
2022/06/09 00:25:25;;;;;;;;;;;;;;;-144.99;100.00;52317.66;5029724;28;19953;-71
2022/06/09 00:27:51;;;;;;;;;;;;;;;-144.99;100.00;52293.19;5030120;28;19926;-73
2022/06/09 00:30:18;;;;;;;;;;;;;;;-144.99;100.00;52301.34;5029193;28;19925;-71
2022/06/09 00:32:44;;;;;;;;;;;;;;;-144.99;100.00;52289.13;5029965;28;19925;-72
2022/06/09 00:35:13;;;;;;;;;;;;;;;-144.99;100.00;52293.19;5029754;28;20447;-71
2022/06/09 00:37:39;;;;;;;;;;;;;;;-144.99;100.00;52313.56;5030427;28;20355;-71
2022/06/09 00:40:07;;;;;;;;;;;;;;;-144.99;100.00;52311.53;5029542;28;19932;-71
2022/06/09 00:42:34;;;;;;;;;;;;;;;-144.99;100.00;52276.88;5029661;28;19983;-72
2022/06/09 00:45:15;;;;;;;;;;;;;;;-144.99;100.00;52317.66;5029043;28;20347;-71
2022/06/09 00:47:41;;;;;;;;;;;;;;;-144.99;100.00;52297.25;5029585;28;20336;-71
2022/06/09 00:50:14;;;;;;;;;;;;;;;-144.99;100.00;52280.97;5029528;28;20012;-72
2022/06/09 00:52:43;;;;;;;;;;;;;;;-144.99;100.00;52309.50;5028893;28;19926;-68
2022/06/09 00:55:13;;;;;;;;;;;;;;;-144.99;100.00;52321.72;5028806;28;19926;-69
2022/06/09 00:57:42;;;;;;;;;;;;;;;-144.99;100.00;52276.88;5029650;28;19925;-71
2022/06/09 01:00:12;;;;;;;;;;;;;;;-144.99;100.00;52268.72;5029369;28;19929;-70
2022/06/09 01:02:38;;;;;;;;;;;;;;;-144.99;100.00;52317.66;5033131;28;20336;-70
2022/06/09 01:05:06;;;;;;;;;;;;;;;-144.99;100.00;52342.09;5027024;28;20019;-70
2022/06/09 01:07:36;;;;;;;;;;;;;;;-144.99;100.00;52321.72;5029333;28;20360;-71
2022/06/09 01:10:04;;;;;;;;;;;;;;;-144.99;100.00;52293.19;5029347;28;20394;-69
2022/06/09 01:12:32;;;;;;;;;;;;;;;-144.99;100.00;52329.88;5031707;28;19935;-68
2022/06/09 01:15:01;;;;;;;;;;;;;;;-144.99;100.00;52338.03;5029446;28;19999;-69
2022/06/09 01:17:34;;;;;;;;;;;;;;;-144.99;100.00;52285.03;5030238;28;20033;-70
2022/06/09 01:20:05;;;;;;;;;;;;;;;-144.99;100.00;52321.72;5032258;28;20309;-69
2022/06/09 01:22:53;;;;;;;;;;;;;;;-144.99;100.00;52309.50;5032780;28;20000;-70
2022/06/09 01:25:46;;;;;;;;;;;;;;;-144.99;100.00;52311.53;5032786;28;19959;-70
2022/06/09 01:28:39;;;;;;;;;;;;;;;-144.99;100.00;52293.19;5032534;28;20012;-69
2022/06/09 01:31:12;;;;;;;;;;;;;;;-144.99;100.00;52317.66;4996255;28;19925;-68
2022/06/09 01:33:41;;;;;;;;;;;;;;;-144.99;100.00;52309.50;5032322;28;19925;-70
2022/06/09 01:36:10;;;;;;;;;;;;;;;-144.99;100.00;52333.94;5032616;28;19971;-70
2022/06/09 01:38:46;;;;;;;;;;;;;;;-144.99;100.00;52313.56;5032800;28;19976;-70
2022/06/09 01:41:14;;;;;;;;;;;;;;;-144.99;100.00;52354.34;5032648;28;20396;-70
2022/06/09 01:43:40;;;;;;;;;;;;;;;-144.99;100.00;52342.09;5032784;28;20023;-67
2022/06/09 01:46:10;;;;;;;;;;;;;;;-144.99;100.00;52293.19;5032969;28;20016;-67
2022/06/09 01:48:37;;;;;;;;;;;;;;;-144.99;100.00;52329.88;5032762;28;20362;-67
2022/06/09 01:51:07;;;;;;;;;;;;;;;-144.99;100.00;52325.81;5032006;28;20007;-69
2022/06/09 01:53:36;;;;;;;;;;;;;;;-144.99;100.00;52289.13;5025404;28;19935;-71
2022/06/09 01:56:05;;;;;;;;;;;;;;;-144.99;100.00;52299.31;5032174;28;19932;-69
2022/06/09 01:58:35;;;;;;;;;;;;;;;-144.99;100.00;52350.25;5032453;28;19972;-70
2022/06/09 02:01:02;;;;;;;;;;;;;;;-144.99;100.00;52325.81;5033812;28;20023;-70
2022/06/09 02:03:31;;;;;;;;;;;;;;;-144.99;100.00;52317.66;5024288;28;19964;-71
2022/06/09 02:05:59;;;;;;;;;;;;;;;-144.99;100.00;52303.38;5031913;28;20409;-70
2022/06/09 02:08:29;;;;;;;;;;;;;;;-144.99;100.00;52352.28;5032177;28;20062;-70
2022/06/09 02:10:56;;;;;;;;;;;;;;;-144.99;100.00;52362.50;5033970;28;19931;-70
2022/06/09 02:13:25;;;;;;;;;;;;;;;-144.99;100.00;52333.94;5031751;28;20007;-70
2022/06/09 02:15:53;;;;;;;;;;;;;;;-144.99;100.00;52338.03;5031555;28;20008;-70
2022/06/09 02:18:20;;;;;;;;;;;;;;;-144.99;100.00;52289.13;5032379;28;19932;-69
2022/06/09 02:20:51;;;;;;;;;;;;;;;-144.99;100.00;52301.34;5030195;28;19975;-68
2022/06/09 02:23:17;;;;;;;;;;;;;;;-144.99;100.00;52325.81;5030299;28;19925;-68
2022/06/09 02:25:44;;;;;;;;;;;;;;;-144.99;100.00;52333.94;5031451;28;19929;-67
2022/06/09 02:28:10;;;;;;;;;;;;;;;-144.99;100.00;52301.34;5031773;28;20338;-68
2022/06/09 02:30:38;;;;;;;;;;;;;;;-144.99;100.00;52293.19;5031579;28;19951;-68
2022/06/09 02:33:05;;;;;;;;;;;;;;;-144.99;100.00;52317.66;5031123;28;19935;-66
2022/06/09 02:35:31;;;;;;;;;;;;;;;-144.99;100.00;52342.09;5030267;28;19965;-67
2022/06/09 02:38:00;;;;;;;;;;;;;;;-144.99;100.00;52301.34;5031337;28;19979;-66
2022/06/09 02:40:27;;;;;;;;;;;;;;;-144.99;100.00;52344.16;5031227;28;19924;-66
2022/06/09 02:42:53;;;;;;;;;;;;;;;-144.99;100.00;52309.50;5030752;28;20438;-66
2022/06/09 02:45:20;;;;;;;;;;;;;;;-144.99;100.00;52321.72;5031242;28;19960;-67
2022/06/09 02:47:47;;;;;;;;;;;;;;;-144.99;100.00;52321.72;5031594;28;20309;-67
2022/06/09 02:50:14;;;;;;;;;;;;;;;-144.99;100.00;52309.50;5032066;28;20221;-67
2022/06/09 02:52:41;;;;;;;;;;;;;;;-144.99;100.00;52315.59;5024362;28;19965;-67
2022/06/09 02:55:09;;;;;;;;;;;;;;;-144.99;100.00;52325.81;5031340;28;20084;-67
2022/06/09 02:57:36;;;;;;;;;;;;;;;-144.99;100.00;52313.56;5031537;28;19932;-67
2022/06/09 03:00:05;;;;;;;;;;;;;;;-144.99;100.00;52313.56;5031265;28;20501;-67
2022/06/09 03:02:32;;;;;;;;;;;;;;;-144.99;100.00;52346.19;5032811;28;19936;-67
2022/06/09 03:04:59;;;;;;;;;;;;;;;-144.99;100.00;52366.56;5031114;28;20011;-68
2022/06/09 03:07:26;;;;;;;;;;;;;;;-144.99;100.00;52346.19;5030591;28;19925;-67
2022/06/09 03:09:53;;;;;;;;;;;;;;;-144.99;100.00;52313.56;5055566;22;20296;-64
2022/06/09 03:12:21;;;;;;;;;;;;;;;-144.99;100.00;52325.81;5090373;28;19977;-64
2022/06/09 03:14:48;;;;;;;;;;;;;;;-144.99;100.00;52317.66;5076916;28;19924;-63
2022/06/09 03:17:14;;;;;;;;;;;;;;;-144.99;100.00;52317.66;5090718;28;19990;-64
2022/06/09 03:19:41;;;;;;;;;;;;;;;-144.99;100.00;52333.94;5090840;28;19968;-64
2022/06/09 03:22:08;;;;;;;;;;;;;;;-144.99;100.00;52317.66;5085048;28;19959;-64
2022/06/09 03:24:34;;;;;;;;;;;;;;;-144.99;100.00;52358.41;5090224;28;20007;-64
2022/06/09 03:27:01;;;;;;;;;;;;;;;-144.99;100.00;52344.16;5087220;28;20045;-63
2022/06/09 03:29:29;;;;;;;;;;;;;;;-144.99;100.00;52350.25;5090599;28;20356;-65
2022/06/09 03:31:56;;;;;;;;;;;;;;;-144.99;100.00;52331.91;5089979;28;19975;-65
2022/06/09 03:34:23;;;;;;;;;;;;;;;-144.99;100.00;52336.00;5089280;28;19928;-66
2022/06/09 03:36:50;;;;;;;;;;;;;;;-144.99;100.00;52305.41;5090143;28;19928;-66
2022/06/09 03:39:16;;;;;;;;;;;;;;;-144.99;100.00;52289.13;5090494;28;20380;-66
2022/06/09 03:41:43;;;;;;;;;;;;;;;-144.99;100.00;52342.09;5090252;28;19989;-66
2022/06/09 03:44:09;;;;;;;;;;;;;;;-144.99;100.00;52317.66;5090372;28;20012;-65
2022/06/09 03:46:37;;;;;;;;;;;;;;;-144.99;100.00;52378.78;5089411;28;19931;-63
2022/06/09 03:49:04;;;;;;;;;;;;;;;-144.99;100.00;52303.38;5089966;28;20018;-63
2022/06/09 03:51:30;;;;;;;;;;;;;;;-144.99;100.00;52321.72;5083139;28;20494;-64
2022/06/09 03:53:56;;;;;;;;;;;;;;;-144.99;100.00;52358.41;5081977;28;19926;-63
2022/06/09 03:56:23;;;;;;;;;;;;;;;-144.99;100.00;52352.28;5089500;28;19975;-63
2022/06/09 03:58:49;;;;;;;;;;;;;;;-144.99;100.00;52329.88;5089695;28;20023;-63
2022/06/09 04:01:18;;;;;;;;;;;;;;;-144.99;100.00;52360.44;5089072;28;20026;-64
2022/06/09 04:03:46;;;;;;;;;;;;;;;-144.99;100.00;52309.50;5089481;28;19939;-64
2022/06/09 04:06:14;;;;;;;;;;;;;;;-144.99;100.00;52317.66;5087265;28;20022;-64
2022/06/09 04:08:40;;;;;;;;;;;;;;;-144.99;100.00;52338.03;5089625;28;19924;-60
2022/06/09 04:11:07;;;;;;;;;;;;;;;-144.99;100.00;52342.09;5089068;28;20031;-65
2022/06/09 04:13:33;;;;;;;;;;;;;;;-144.99;100.00;52336.00;5089885;28;19931;-64
2022/06/09 04:15:59;;;;;;;;;;;;;;;-144.99;100.00;52374.72;5089782;28;20028;-63
2022/06/09 04:18:27;;;;;;;;;;;;;;;-144.99;100.00;52342.09;5090332;28;19928;-65
2022/06/09 04:20:54;;;;;;;;;;;;;;;-144.99;100.00;52321.72;5089778;28;19951;-63
2022/06/09 04:23:21;;;;;;;;;;;;;;;-144.99;100.00;52317.66;5089019;28;20384;-64
2022/06/09 04:25:47;;;;;;;;;;;;;;;-144.99;100.00;52366.56;5084563;28;20238;-65
2022/06/09 04:28:14;;;;;;;;;;;;;;;-144.99;100.00;52338.03;5089372;28;20011;-64
2022/06/09 04:30:40;;;;;;;;;;;;;;;-144.99;100.00;52313.56;5089535;28;20018;-62
2022/06/09 04:33:07;;;;;;;;;;;;;;;-144.99;100.00;52354.34;5089490;28;20031;-63
2022/06/09 04:35:35;;;;;;;;;;;;;;;-144.99;100.00;52342.09;5089120;28;19977;-63
2022/06/09 04:38:03;;;;;;;;;;;;;;;-144.99;100.00;52346.19;5089508;28;20388;-63
2022/06/09 04:40:31;;;;;;;;;;;;;;;-144.99;100.00;52317.66;5089149;28;20373;-67
2022/06/09 04:42:58;;;;;;;;;;;;;;;-144.99;100.00;52329.88;5089461;28;20085;-68
2022/06/09 04:45:25;;;;;;;;;;;;;;;-144.99;100.00;52342.09;5089357;28;19952;-63
2022/06/09 04:47:52;;;;;;;;;;;;;;;-144.99;100.00;52350.25;5089530;28;19924;-65
2022/06/09 04:50:19;;;;;;;;;;;;;;;-144.99;100.00;52376.75;5089175;28;20570;-66
2022/06/09 04:52:45;;;;;;;;;;;;;;;-144.99;100.00;52333.94;5082931;28;19925;-65
2022/06/09 04:55:13;;;;;;;;;;;;;;;-144.99;100.00;52368.59;5088982;28;20026;-65
2022/06/09 04:57:40;;;;;;;;;;;;;;;-144.99;100.00;52327.84;5089907;28;19928;-65
2022/06/09 05:00:08;;;;;;;;;;;;;;;-144.99;100.00;52338.03;5093154;28;19985;-67
2022/06/09 05:02:35;;;;;;;;;;;;;;;-144.99;100.00;52333.94;5093501;28;20003;-67
2022/06/09 05:05:02;;;;;;;;;;;;;;;-144.99;100.00;52301.34;5091216;28;20034;-67
2022/06/09 05:07:30;;;;;;;;;;;;;;;-144.99;100.00;52305.41;5093448;28;20095;-67
2022/06/09 05:09:57;;;;;;;;;;;;;;;-144.99;100.00;52331.91;5093678;28;19931;-67
2022/06/09 05:12:25;;;;;;;;;;;;;;;-144.99;100.00;52321.72;5093137;28;19978;-67
2022/06/09 05:14:51;;;;;;;;;;;;;;;-144.99;100.00;52297.25;5093119;28;20008;-68
2022/06/09 05:17:18;;;;;;;;;;;;;;;-144.99;100.00;52297.25;5093077;28;19924;-67
2022/06/09 05:19:45;;;;;;;;;;;;;;;-144.99;100.00;52329.88;5092953;28;20039;-67
2022/06/09 05:22:12;;;;;;;;;;;;;;;-144.99;100.00;52317.66;5088603;28;20019;-66
2022/06/09 05:24:38;;;;;;;;;;;;;;;-144.99;100.00;52305.41;5087144;28;19996;-66
2022/06/09 05:27:05;;;;;;;;;;;;;;;-144.99;100.00;52360.44;5092617;28;19931;-62
2022/06/09 05:29:33;;;;;;;;;;;;;;;-144.99;100.00;52327.84;5093210;28;20020;-61
2022/06/09 05:32:01;;;;;;;;;;;;;;;-144.99;100.00;52342.09;5092024;28;19963;-61
2022/06/09 05:34:27;;;;;;;;;;;;;;;-144.99;100.00;52329.88;5091189;28;19936;-63
2022/06/09 05:36:54;;;;;;;;;;;;;;;-144.99;100.00;52313.56;5092261;28;19975;-64
2022/06/09 05:44:53;;;;;;;;;;;;;;;-144.99;100.00;52317.66;5086447;28;19935;-65
2022/06/09 05:47:22;;;;;;;;;;;;;;;-144.99;100.00;52321.72;5092005;28;20385;-64
2022/06/09 05:49:49;;;;;;;;;;;;;;;-144.99;100.00;52329.88;5091879;28;20287;-63
2022/06/09 05:52:15;;;;;;;;;;;;;;;-144.99;100.00;52317.66;5091529;28;20306;-64
2022/06/09 05:54:43;;;;;;;;;;;;;;;-144.99;100.00;52338.03;5086332;28;20372;-63
2022/06/09 05:57:10;;;;;;;;;;;;;;;-144.99;100.00;52354.34;5081316;28;20400;-63
2022/06/09 05:59:37;;;;;;;;;;;;;;;-144.99;100.00;52297.25;5092115;28;19963;-61
2022/06/09 06:02:05;;;;;;;;;;;;;;;-144.99;100.00;52321.72;5091042;28;19924;-62
2022/06/09 06:04:32;;;;;;;;;;;;;;;-144.99;100.00;52313.56;5089911;28;19931;-63
2022/06/09 06:06:59;;;;;;;;;;;;;;;-144.99;100.00;52313.56;5092653;28;20002;-62
2022/06/09 06:09:25;;;;;;;;;;;;;;;-144.99;100.00;52315.59;5092208;28;20337;-62
2022/06/09 06:11:52;;;;;;;;;;;;;;;-144.99;100.00;52280.97;5092004;28;20039;-62
2022/06/09 06:14:19;;;;;;;;;;;;;;;-144.99;100.00;52329.88;5092229;28;19951;-62
2022/06/09 06:16:45;;;;;;;;;;;;;;;-144.99;100.00;52305.41;5091816;28;19924;-63
2022/06/09 06:19:14;;;;;;;;;;;;;;;-144.99;100.00;52325.81;5091966;28;19975;-62
2022/06/09 06:21:41;;;;;;;;;;;;;;;-144.99;100.00;52338.03;5081967;28;20178;-63
2022/06/09 06:24:09;;;;;;;;;;;;;;;-144.99;100.00;52321.72;5087895;28;20344;-67
2022/06/09 06:26:35;;;;;;;;;;;;;;;-144.99;100.00;52309.50;5088597;28;19985;-67
2022/06/09 06:29:03;;;;;;;;;;;;;;;-144.99;100.00;52325.81;5091921;28;20442;-66
2022/06/09 06:31:30;;;;;;;;;;;;;;;-144.99;100.00;52297.25;5091108;28;19970;-65
2022/06/09 06:33:56;;;;;;;;;;;;;;;-144.99;100.00;52293.19;5091584;28;20015;-66
2022/06/09 06:36:24;;;;;;;;;;;;;;;-144.99;100.00;52344.16;5090187;28;19930;-65
2022/06/09 06:38:51;;;;;;;;;;;;;;;-144.99;100.00;52309.50;5091490;28;20401;-65
2022/06/09 06:41:18;;;;;;;;;;;;;;;-144.99;100.00;52333.94;5091320;28;20478;-66
2022/06/09 06:43:45;;;;;;;;;;;;;;;-144.99;100.00;52311.53;5091295;28;20366;-66
2022/06/09 06:46:11;;;;;;;;;;;;;;;-144.99;100.00;52305.41;5091220;28;19931;-62
2022/06/09 06:48:38;;;;;;;;;;;;;;;-144.99;100.00;52342.09;5086082;28;19928;-68
2022/06/09 06:51:06;;;;;;;;;;;;;;;-144.99;100.00;52301.34;5082585;28;20258;-66
2022/06/09 06:53:34;;;;;;;;;;;;;;;-144.99;100.00;52309.50;5085905;28;19936;-66
2022/06/09 06:56:00;;;;;;;;;;;;;;;-144.99;100.00;52313.56;5087769;28;20371;-67
2022/06/09 06:58:27;;;;;;;;;;;;;;;-144.99;100.00;52301.34;5091135;28;19967;-67
2022/06/09 07:00:54;;;;;;;;;;;;;;;-144.99;100.00;52329.88;5091018;28;19971;-67
2022/06/09 07:03:21;;;;;;;;;;;;;;;-144.99;100.00;52325.81;5091023;28;20015;-68
2022/06/09 07:05:47;;;;;;;;;;;;;;;-144.99;100.00;52266.69;5089079;28;19968;-67
2022/06/09 07:08:16;;;;;;;;;;;;;;;-144.99;100.00;52366.56;5091089;28;19967;-68
2022/06/09 07:10:44;;;;;;;;;;;;;;;-144.99;100.00;52309.50;5091290;28;20356;-68
2022/06/09 07:13:11;;;;;;;;;;;;;;;-144.99;100.00;52301.34;5090620;28;20007;-69
2022/06/09 07:15:37;;;;;;;;;;;;;;;-144.99;100.00;52325.81;5090432;28;20027;-66
2022/06/09 07:18:04;;;;;;;;;;;;;;;-144.99;100.00;52321.72;5090873;28;19974;-65
2022/06/09 07:20:30;;;;;;;;;;;;;;;-144.99;100.00;52319.69;5090628;28;19978;-65
2022/06/09 07:22:57;;;;;;;;;;;;;;;-144.99;100.00;52315.59;5090356;28;19946;-63
2022/06/09 07:25:25;;;;;;;;;;;;;;;-144.99;100.00;52313.56;5089220;28;19978;-65
2022/06/09 07:27:54;;;;;;;;;;;;;;;-144.99;100.00;52285.03;5091357;28;19924;-67
2022/06/09 07:30:22;;;;;;;;;;;;;;;-144.99;100.00;52293.19;5090918;28;20011;-66
2022/06/09 07:32:48;;;;;;;;;;;;;;;-144.99;99.35;52293.19;5090946;28;20005;-65
2022/06/09 07:35:16;;;;;;;;;;;;;;;-144.99;96.23;52305.41;5090682;28;20337;-64
2022/06/09 07:37:43;;;;;;;;;;;;;;;-144.99;96.14;52293.19;5090529;28;19967;-65
2022/06/09 07:40:10;;;;;;;;;;;;;;;-144.99;94.73;52276.88;5090190;28;20010;-65
2022/06/09 07:42:37;;;;;;;;;;;;;;;-144.99;92.47;52293.19;5091343;28;20076;-65
2022/06/09 07:45:05;;;;;;;;;;;;;;;-144.99;89.11;52276.88;5090744;28;20380;-64
2022/06/09 07:47:31;;;;;;;;;;;;;;;-144.99;87.09;52252.44;5091953;28;19977;-65
2022/06/09 07:49:58;;;;;;;;;;;;;;;-144.99;85.86;52252.44;5091802;28;19963;-65
2022/06/09 07:52:25;;;;;;;;;;;;;;;-144.99;84.85;52242.22;5087540;28;20297;-66
2022/06/09 07:54:51;;;;;;;;;;;;;;;-144.99;84.21;52256.50;5089161;28;19946;-65
2022/06/09 07:57:18;;;;;;;;;;;;;;;-144.99;82.42;52227.97;5091020;28;20408;-64
2022/06/09 07:59:45;;;;;;;;;;;;;;;-144.99;79.10;52246.31;5091314;28;20562;-66
2022/06/09 08:02:13;;;;;;;;;;;;;;;-144.99;77.03;52268.72;5091104;28;19930;-65
2022/06/09 08:04:40;;;;;;;;;;;;;;;-144.99;76.63;52260.56;5086795;28;20038;-67
2022/06/09 08:07:06;;;;;;;;;;;;;;;-144.99;77.41;52240.19;5085122;28;19973;-65
2022/06/09 08:09:33;;;;;;;;;;;;;;;-144.99;76.98;52250.38;5091592;28;19959;-65
2022/06/09 08:12:00;;;;;;;;;;;;;;;-144.99;77.90;52250.38;5090034;28;20353;-66
2022/06/09 08:14:26;;;;;;;;;;;;;;;-144.99;78.52;52266.69;5090110;28;20019;-65
2022/06/09 08:16:53;;;;;;;;;;;;;;;-144.99;78.84;52219.81;5089684;28;19935;-65
2022/06/09 08:19:21;;;;;;;;;;;;;;;-144.99;78.59;52236.13;5090676;28;20010;-66
2022/06/09 08:21:47;;;;;;;;;;;;;;;-144.99;79.41;52293.19;5086063;28;19924;-66
2022/06/09 08:24:14;;;;;;;;;;;;;;;-144.99;78.46;52283.00;5089328;28;19963;-66
2022/06/09 08:26:41;;;;;;;;;;;;;;;-144.99;79.21;52252.44;5086993;28;19924;-66
2022/06/09 08:29:07;;;;;;;;;;;;;;;-144.99;78.66;52240.19;5090309;28;19964;-66
2022/06/09 08:31:34;;;;;;;;;;;;;;;-144.99;78.64;52244.28;5089207;28;19928;-66
2022/06/09 08:34:00;;;;;;;;;;;;;;;-144.99;76.95;52280.97;5092302;28;19967;-68
2022/06/09 08:36:29;;;;;;;;;;;;;;;-144.99;76.75;52276.88;5093697;28;19924;-65
2022/06/09 08:38:56;;;;;;;;;;;;;;;-144.99;75.65;52293.19;5094128;28;19927;-68
2022/06/09 08:41:33;;;;;;;;;;;;;;;-144.99;77.36;52309.50;5093721;28;19966;-66
2022/06/09 08:44:04;;;;;;;;;;;;;;;-144.99;81.58;52293.19;5093989;28;20280;-67
2022/06/09 08:46:39;;;;;;;;;;;;;;;-144.99;86.42;52295.22;5083744;28;19967;-67
2022/06/09 08:49:07;;;;;;;;;;;;;;;-144.99;91.04;52301.34;5087723;28;20036;-67
2022/06/09 08:51:37;;;;;;;;;;;;;;;-144.99;94.89;52285.03;5087566;28;20428;-66
2022/06/09 08:54:06;;;;;;;;;;;;;;;-144.99;94.95;52329.88;5084668;28;19937;-67
2022/06/09 08:56:32;;;;;;;;;;;;;;;-144.99;95.86;52309.50;5090730;28;19959;-66
2022/06/09 08:59:00;;;;;;;;;;;;;;;-144.99;95.27;52244.28;5091332;28;19986;-66
2022/06/09 09:01:30;;;;;;;;;;;;;;;-144.99;95.84;52289.13;5090413;28;20556;-66
2022/06/09 09:03:58;;;;;;;;;;;;;;;-144.99;93.82;52289.13;5093785;28;20528;-66
2022/06/09 09:06:28;;;;;;;;;;;;;;;-144.99;91.18;52264.66;5091554;28;20137;-66
2022/06/09 09:08:59;;;;;;;;;;;;;;;-144.99;88.77;52272.81;5093897;28;19924;-66
2022/06/09 09:11:34;;;;;;;;;;;;;;;-144.99;84.28;52293.19;5101865;22;20420;-69
2022/06/09 09:14:01;;;;;;;;;;;;;;;-144.99;83.02;52285.03;5067565;28;20313;-69
2022/06/09 09:16:34;;;;;;;;;;;;;;;-144.99;82.78;52268.72;5067079;28;19925;-69
2022/06/09 09:19:03;;;;;;;;;;;;;;;-144.99;81.59;52248.34;5051992;28;19931;-72
2022/06/09 09:21:37;;;;;;;;;;;;;;;-144.99;80.02;52289.13;5041124;28;20348;-72
2022/06/09 09:24:10;;;;;;;;;;;;;;;-144.99;80.28;52272.81;5047488;28;20110;-71
2022/06/09 09:26:45;;;;;;;;;;;;;;;-144.99;80.70;52248.34;5045475;28;19925;-70
2022/06/09 09:29:16;;;;;;;;;;;;;;;-144.99;81.25;52258.53;5046468;28;19978;-70
2022/06/09 09:31:46;;;;;;;;;;;;;;;-144.99;82.72;52293.19;5048993;28;19939;-69
2022/06/09 09:34:16;;;;;;;;;;;;;;;-144.99;81.22;52309.50;5051906;28;19932;-70
2022/06/09 09:36:44;;;;;;;;;;;;;;;-144.99;81.99;52289.13;5055598;28;19932;-70
2022/06/09 09:39:15;;;;;;;;;;;;;;;-144.99;81.46;52309.50;5055436;28;19968;-69
2022/06/09 09:41:42;;;;;;;;;;;;;;;-144.99;81.72;52252.44;5052675;28;20026;-69
2022/06/09 09:44:15;;;;;;;;;;;;;;;-144.99;82.36;52309.50;5052261;28;20002;-69
2022/06/09 09:46:42;;;;;;;;;;;;;;;-144.99;83.90;52283.00;5047661;28;19929;-69
2022/06/09 09:49:19;;;;;;;;;;;;;;;-144.99;84.91;52305.41;5051835;28;20005;-69
2022/06/09 09:51:46;;;;;;;;;;;;;;;-144.99;86.97;52325.81;5050658;28;19925;-69
2022/06/09 09:54:19;;;;;;;;;;;;;;;-144.99;87.67;52321.72;5050643;28;20019;-70
2022/06/09 09:56:46;;;;;;;;;;;;;;;-144.99;88.32;52280.97;5051672;28;19933;-69
2022/06/09 09:59:21;;;;;;;;;;;;;;;-144.99;88.16;52305.41;5047878;28;20444;-71
2022/06/09 10:10:12;;;;;;;;;;;;;;;-144.99;83.77;52291.16;5009385;28;20374;-70
2022/06/09 10:12:38;;;;;;;;;;;;;;;-144.99;83.43;52266.69;5051289;28;19933;-69
2022/06/09 10:15:06;;;;;;;;;;;;;;;-144.99;81.43;52280.97;5051562;28;19971;-69
2022/06/09 10:17:39;;;;;;;;;;;;;;;-144.99;78.06;52262.63;5049733;28;20380;-70
2022/06/09 10:20:21;;;;;;;;;;;;;;;-144.99;75.28;52244.28;5045711;28;20257;-69
2022/06/09 10:22:55;;;;;;;;;;;;;;;-144.99;75.49;52280.97;5045308;28;19924;-70
2022/06/09 10:25:27;;;;;;;;;;;;;;;-144.99;75.29;52280.97;5050549;28;19933;-71
2022/06/09 10:27:58;;;;;;;;;;;;;;;-144.99;77.18;52285.03;5049580;28;19932;-69
2022/06/09 10:30:28;;;;;;;;;;;;;;;-144.99;77.54;52301.34;5050255;28;20278;-70
2022/06/09 10:32:58;;;;;;;;;;;;;;;-144.99;77.13;52268.72;5051003;28;19924;-69
2022/06/09 10:35:28;;;;;;;;;;;;;;;-144.99;78.12;52240.19;5051388;28;19931;-69
2022/06/09 10:37:58;;;;;;;;;;;;;;;-144.99;76.73;52268.72;5048064;28;19931;-70
2022/06/09 10:40:32;;;;;;;;;;;;;;;-144.99;75.98;52268.72;5052081;28;19928;-70
2022/06/09 10:43:03;;;;;;;;;;;;;;;-144.99;75.32;52240.19;5051047;28;19986;-70
2022/06/09 10:45:33;;;;;;;;;;;;;;;-144.99;75.49;52272.81;5044872;28;20416;-69
2022/06/09 10:56:30;;;;;;;;;;;;;;;-144.99;65.66;52215.75;5043709;28;20009;-69
2022/06/09 10:58:59;;;;;;;;;;;;;;;-144.99;65.40;52250.38;5042322;28;20305;-69
2022/06/09 11:01:27;;;;;;;;;;;;;;;-144.99;65.12;52248.34;5047995;28;20263;-70
2022/06/09 11:03:54;;;;;;;;;;;;;;;-144.99;66.18;52268.72;5043680;28;20164;-67
2022/06/09 11:06:25;;;;;;;;;;;;;;;-144.99;65.03;52219.81;5041053;28;20361;-68
2022/06/09 11:08:57;;;;;;;;;;;;;;;-144.99;65.18;52256.50;5040931;28;20326;-64
2022/06/09 11:11:31;;;;;;;;;;;;;;;-144.99;65.25;52256.50;5045734;28;19924;-68
2022/06/09 11:14:03;;;;;;;;;;;;;;;-144.99;64.55;52207.59;5045860;28;19964;-68
2022/06/09 11:16:34;;;;;;;;;;;;;;;-144.99;65.39;52280.97;5042216;28;19929;-68
2022/06/09 11:19:17;;;;;;;;;;;;;;;-144.99;66.05;52268.72;5042035;28;19925;-66
2022/06/09 11:21:49;;;;;;;;;;;;;;;-144.99;65.93;52270.78;5043152;28;20470;-68
2022/06/09 11:24:23;;;;;;;;;;;;;;;-144.99;67.25;52242.22;5044494;28;20023;-68
2022/06/09 11:26:55;;;;;;;;;;;;;;;-144.99;68.27;52268.72;5049803;28;19931;-69
2022/06/09 11:29:34;;;;;;;;;;;;;;;-144.99;67.00;52252.44;5044502;28;19936;-69
2022/06/09 11:32:07;;;;;;;;;;;;;;;-144.99;66.86;52227.97;5048144;28;19956;-69
2022/06/09 11:34:48;;;;;;;;;;;;;;;-144.99;64.29;52195.34;5042236;28;20265;-69
2022/06/09 11:37:24;;;;;;;;;;;;;;;-144.99;62.67;52199.44;5044011;28;19925;-69
2022/06/09 11:39:57;;;;;;;;;;;;;;;-144.99;61.71;52215.75;5043962;28;20519;-68
2022/06/09 11:42:32;;;;;;;;;;;;;;;-144.99;61.07;52223.88;5046310;28;19940;-70
2022/06/09 11:45:03;;;;;;;;;;;;;;;-144.99;60.54;52183.13;5046884;28;19967;-70
2022/06/09 11:47:32;;;;;;;;;;;;;;;-144.99;61.58;52264.66;5043475;28;20402;-69
2022/06/09 11:50:00;;;;;;;;;;;;;;;-144.99;61.12;52230.00;5039622;28;19960;-68
2022/06/09 11:52:30;;;;;;;;;;;;;;;-144.99;60.43;52203.50;5045688;28;19933;-69
2022/06/09 11:55:00;;;;;;;;;;;;;;;-144.99;58.03;52158.66;5048061;28;20023;-69
2022/06/09 11:57:43;;;;;;;;;;;;;;;-144.99;57.46;52199.44;5049206;28;19951;-69
2022/06/09 12:00:24;;;;;;;;;;;;;;;-144.99;54.79;52146.44;5046118;28;20024;-70
2022/06/09 12:02:59;;;;;;;;;;;;;;;-144.99;53.28;52170.91;5049046;28;19924;-70
2022/06/09 12:05:28;;;;;;;;;;;;;;;-144.99;51.71;52189.25;5047218;28;19924;-69
2022/06/09 12:08:12;;;;;;;;;;;;;;;-144.99;50.51;52126.06;5043622;28;20501;-69
2022/06/09 12:10:55;;;;;;;;;;;;;;;-144.99;51.34;52172.94;5041394;28;19928;-69
2022/06/09 12:13:23;;;;;;;;;;;;;;;-144.99;50.91;52187.19;5042619;28;20407;-68
2022/06/09 12:15:52;;;;;;;;;;;;;;;-144.99;51.40;52197.41;5040306;28;20285;-69
2022/06/09 12:18:39;;;;;;;;;;;;;;;-144.99;51.12;52134.22;5036309;28;20198;-69
2022/06/09 12:21:14;;;;;;;39.45;36.45;;;;;;;-144.99;51.00;52162.75;5039768;28;25051;-70
2022/06/09 12:23:41;;;;;;;;;;;;;;;-144.99;50.16;52136.25;5047246;28;20288;-68
2022/06/09 12:26:22;;;;;;;;;;;;;;;-144.99;50.40;52156.63;5044363;28;19967;-69
2022/06/09 12:29:00;;;;;;;;;;;;;;;-144.99;50.40;52117.91;5048293;28;19960;-69
2022/06/09 12:31:29;;;;;;;;;;;;;;;-144.99;49.09;52113.84;5046515;28;20059;-69
2022/06/09 12:33:56;;;;;;;;;;;;;;;-144.99;48.31;52126.06;5048500;28;20035;-69
2022/06/09 12:36:34;;;;;;;;;;;;;;;-144.99;48.31;52105.69;5039075;28;20000;-69
2022/06/09 12:39:02;;;;;;;;;;;;;;;-144.99;47.73;52093.44;5044111;28;19931;-69
2022/06/09 12:41:30;;;;;;;;;;;;;;;-144.99;46.92;52128.09;5044137;28;19925;-69
2022/06/09 12:44:00;;;;;;;;;;;;;;;-144.99;46.45;52126.06;5047189;28;20058;-70
2022/06/09 12:46:27;;;;;;;;;;;;;;;-144.99;46.84;52089.38;5044390;28;19921;-70
2022/06/09 12:48:55;;;;;;;;;;;;;;;-144.99;47.62;52166.81;5045094;28;20321;-70
2022/06/09 12:51:24;;;;;;;;;;;;;;;-144.99;47.50;52138.28;5044099;28;19947;-70